Time;durP1;ratioP1;P1;durP2;ratioP2;P2;SDS_P1;SDS_P2;PMS_P1;PMS_P2;Temp;Humidity;BMP_temperature;BMP_pressure;BME280_temperature;BME280_humidity;BME280_pressure;Samples;Min_cycle;Max_cycle;Signal;HPM_P1;HPM_P2
2023/01/13 00:09:42;;;;;;;16.90;7.50;;;;;;;9.37;100.00;99598.16;682616;1263;138354;-82
2023/01/13 00:24:45;;;;;;;18.50;7.70;;;;;;;9.35;100.00;99586.64;682383;1265;139282;-82
2023/01/13 00:39:50;;;;;;;15.90;9.00;;;;;;;9.37;100.00;99583.77;682394;1266;138574;-82
2023/01/13 00:54:53;;;;;;;10.90;7.60;;;;;;;9.42;100.00;99574.95;682109;1265;138829;-81
2023/01/13 01:09:57;;;;;;;14.80;7.70;;;;;;;9.39;100.00;99565.45;682105;1261;139446;-80
2023/01/13 01:25:00;;;;;;;14.00;8.20;;;;;;;9.32;100.00;99557.06;682211;1261;139290;-80
2023/01/13 01:40:04;;;;;;;16.00;9.30;;;;;;;9.16;100.00;99538.51;682156;1264;138476;-80
2023/01/13 01:55:19;;;;;;;17.00;10.00;;;;;;;9.00;100.00;99513.80;682148;1263;139043;-80
2023/01/13 02:10:26;;;;;;;19.20;11.50;;;;;;;8.80;100.00;99497.55;682471;1260;139324;-81
2023/01/13 02:25:54;;;;;;;19.10;9.50;;;;;;;8.72;100.00;99484.45;682084;1261;138962;-80
2023/01/13 02:56:44;;;;;;;14.90;10.40;;;;;;;8.89;100.00;99452.63;682195;1263;138817;-80
2023/01/13 03:12:01;;;;;;;15.80;10.40;;;;;;;8.96;100.00;99434.27;682239;1264;139860;-79
2023/01/13 03:27:11;;;;;;;18.50;12.10;;;;;;;8.93;100.00;99431.68;682435;1261;139003;-80
2023/01/13 03:42:27;;;;;;;22.20;12.10;;;;;;;8.92;100.00;99424.38;682482;1261;139201;-79
2023/01/13 03:57:34;;;;;;;18.70;12.40;;;;;;;8.95;100.00;99418.67;682341;1263;138697;-79
2023/01/13 04:13:01;;;;;;;20.10;12.30;;;;;;;9.05;100.00;99413.61;682082;1262;138820;-79
2023/01/13 04:28:05;;;;;;;19.70;11.50;;;;;;;9.07;100.00;99408.88;682377;1260;138887;-79
2023/01/13 04:43:09;;;;;;;15.90;10.40;;;;;;;9.17;100.00;99398.46;682128;1263;139376;-79
2023/01/13 04:58:12;;;;;;;15.00;10.40;;;;;;;9.20;100.00;99400.68;682156;1264;138924;-79
2023/01/13 05:28:37;;;;;;;13.80;10.20;;;;;;;9.10;100.00;99400.35;682334;1261;137564;-79
2023/01/13 05:43:40;;;;;;;15.10;9.80;;;;;;;9.12;100.00;99406.64;682294;1263;138865;-80
2023/01/13 05:58:43;;;;;;;11.80;8.90;;;;;;;9.18;100.00;99408.48;682281;1260;138584;-80
2023/01/13 06:13:47;;;;;;;14.10;10.80;;;;;;;9.09;100.00;99417.35;681918;1263;138832;-80
2023/01/13 06:28:50;;;;;;;16.20;11.00;;;;;;;9.27;100.00;99413.24;682381;1261;138655;-79
2023/01/13 06:43:53;;;;;;;9.80;8.10;;;;;;;9.32;100.00;99430.08;682003;1261;140057;-79
2023/01/13 06:58:56;;;;;;;11.40;7.90;;;;;;;9.40;100.00;99431.70;682177;1264;138561;-80
2023/01/13 07:29:22;;;;;;;16.50;13.00;;;;;;;9.45;100.00;99447.62;682215;1264;138829;-80
2023/01/13 07:44:26;;;;;;;15.40;12.50;;;;;;;9.48;100.00;99452.20;682152;1264;138852;-80
2023/01/13 07:59:29;;;;;;;32.00;14.40;;;;;;;9.56;100.00;99458.10;682309;1259;138502;-80
2023/01/13 08:14:32;;;;;;;18.20;11.30;;;;;;;9.56;100.00;99464.00;682237;1265;139281;-81
2023/01/13 08:29:36;;;;;;;12.70;9.30;;;;;;;9.53;100.00;99476.52;682285;1277;139930;-80
2023/01/13 08:44:39;;;;;;;21.50;11.00;;;;;;;9.54;100.00;99489.67;682171;1274;138811;-78
2023/01/13 08:59:42;;;;;;;16.80;11.00;;;;;;;9.52;100.00;99500.94;682212;1262;140038;-79
2023/01/13 09:14:46;;;;;;;15.30;11.50;;;;;;;9.63;100.00;99506.61;682058;1264;140668;-79
2023/01/13 09:29:49;;;;;;;12.20;9.80;;;;;;;9.83;100.00;99505.41;682218;1262;140216;-78
2023/01/13 09:45:00;;;;;;;15.90;9.20;;;;;;;9.84;100.00;99505.31;682015;1261;140124;-78
2023/01/13 10:00:15;;;;;;;11.60;8.90;;;;;;;9.87;100.00;99506.46;682218;1264;139007;-78
2023/01/13 10:15:22;;;;;;;19.40;15.40;;;;;;;9.81;100.00;99491.47;682276;1260;139504;-78
2023/01/13 10:30:33;;;;;;;212.50;95.30;;;;;;;9.88;100.00;99480.01;682083;1261;140030;-80
2023/01/13 10:45:36;;;;;;;26.20;16.70;;;;;;;9.90;100.00;99479.30;682242;1260;138924;-80
2023/01/13 11:00:39;;;;;;;21.30;14.50;;;;;;;9.88;100.00;99473.02;681873;1261;140627;-79
2023/01/13 11:15:45;;;;;;;17.30;10.60;;;;;;;9.84;100.00;99464.65;681976;1261;138649;-79
2023/01/13 11:31:00;;;;;;;23.00;14.50;;;;;;;9.90;100.00;99465.66;682070;1264;139747;-78
2023/01/13 11:46:04;;;;;;;14.70;10.90;;;;;;;9.91;100.00;99467.81;682174;1264;139077;-78
2023/01/13 12:01:26;;;;;;;15.70;10.70;;;;;;;10.44;100.00;99471.98;682055;1264;139715;-79
2023/01/13 12:16:31;;;;;;;13.00;10.10;;;;;;;10.72;100.00;99466.04;682033;1261;138958;-78
2023/01/13 12:31:37;;;;;;;12.00;10.40;;;;;;;10.81;100.00;99459.92;682092;1264;139761;-78
2023/01/13 12:46:54;;;;;;;19.80;12.50;;;;;;;10.81;100.00;99459.52;681999;1265;138740;-79
2023/01/13 13:02:10;;;;;;;18.40;11.20;;;;;;;10.96;100.00;99454.87;682091;1264;139362;-80
2023/01/13 13:17:28;;;;;;;15.40;9.10;;;;;;;11.00;100.00;99460.75;682228;1264;139169;-80
2023/01/13 13:32:59;;;;;;;32.40;16.40;;;;;;;11.10;100.00;99465.72;682039;1264;139592;-81
2023/01/13 13:48:23;;;;;;;12.60;9.20;;;;;;;11.14;100.00;99481.41;682114;1263;140898;-79
2023/01/13 14:03:31;;;;;;;13.50;9.10;;;;;;;11.07;100.00;99486.96;682168;1264;140149;-79
2023/01/13 14:18:46;;;;;;;20.50;12.30;;;;;;;10.90;100.00;99486.80;682026;1264;140150;-80
2023/01/13 14:33:53;;;;;;;20.10;12.30;;;;;;;10.80;100.00;99500.23;682027;1261;139273;-79
2023/01/13 14:49:00;;;;;;;37.70;26.60;;;;;;;10.73;100.00;99501.09;682163;1265;139480;-80
2023/01/13 15:04:37;;;;;;;21.30;13.20;;;;;;;10.74;100.00;99497.88;682097;1264;139701;-79
2023/01/13 15:19:40;;;;;;;20.20;12.20;;;;;;;10.37;100.00;99503.45;682011;1265;139023;-80
2023/01/13 15:34:45;;;;;;;20.50;12.30;;;;;;;9.77;100.00;99523.67;681965;1266;139812;-80
2023/01/13 15:49:49;;;;;;;21.00;13.30;;;;;;;9.68;100.00;99520.45;682144;1264;139255;-79
2023/01/13 16:04:53;;;;;;;16.10;11.00;;;;;;;9.65;100.00;99512.20;681911;1263;139596;-79
2023/01/13 16:19:56;;;;;;;20.80;14.80;;;;;;;9.58;100.00;99510.32;682024;1265;139408;-79
2023/01/13 16:35:00;;;;;;;13.00;7.80;;;;;;;9.50;100.00;99518.85;681681;1266;139020;-80
2023/01/13 16:50:03;;;;;;;12.20;7.60;;;;;;;9.44;100.00;99538.10;681935;1263;138519;-80
2023/01/13 17:05:10;;;;;;;13.00;7.90;;;;;;;9.47;100.00;99540.06;681703;1264;138920;-80
2023/01/13 17:20:14;;;;;;;12.00;9.40;;;;;;;9.42;100.00;99540.39;682025;1266;138688;-80
2023/01/13 17:35:23;;;;;;;8.50;6.20;;;;;;;9.35;100.00;99547.86;681941;1266;139190;-80
2023/01/13 17:50:28;;;;;;;13.50;8.10;;;;;;;9.34;100.00;99568.70;682171;1265;139383;-80
2023/01/13 18:05:32;;;;;;;18.50;11.30;;;;;;;9.34;100.00;99580.27;682040;1264;138685;-78
2023/01/13 18:35:57;;;;;;;123.00;35.20;;;;;;;9.80;100.00;99593.88;682085;1264;140450;-78
2023/01/13 18:51:02;;;;;;;91.30;31.30;;;;;;;9.77;100.00;99595.03;682117;1264;141339;-79
2023/01/13 19:06:12;;;;;;;36.70;18.70;;;;;;;9.58;100.00;99602.79;682036;1264;139122;-78
2023/01/13 19:21:18;;;;;;;20.10;11.30;;;;;;;9.39;100.00;99623.77;682113;1263;141195;-79
2023/01/13 19:36:23;;;;;;;20.40;11.70;;;;;;;9.15;100.00;99639.48;681996;1260;139763;-80
2023/01/13 19:51:29;;;;;;;42.80;17.00;;;;;;;9.01;100.00;99643.63;681772;1266;141363;-79
2023/01/13 20:06:34;;;;;;;44.40;17.40;;;;;;;8.85;100.00;99649.31;682312;1264;138907;-80
2023/01/13 20:21:38;;;;;;;17.20;10.40;;;;;;;8.66;100.00;99671.57;682171;1263;139124;-80
2023/01/13 20:36:42;;;;;;;24.00;10.80;;;;;;;8.53;100.00;99683.88;682188;1263;138770;-79
2023/01/13 20:51:47;;;;;;;20.60;10.80;;;;;;;8.40;100.00;99703.59;681880;1267;139069;-78
2023/01/13 21:06:51;;;;;;;25.80;13.30;;;;;;;8.21;100.00;99708.65;682096;1262;138678;-79
2023/01/13 21:21:55;;;;;;;18.70;9.40;;;;;;;8.12;100.00;99711.27;681756;1261;139620;-79
2023/01/13 21:36:58;;;;;;;15.80;8.80;;;;;;;8.09;100.00;99713.95;682153;1266;138532;-80
2023/01/13 21:52:02;;;;;;;18.50;9.50;;;;;;;8.04;100.00;99719.67;681939;1276;138895;-79
2023/01/13 22:07:05;;;;;;;13.30;7.40;;;;;;;7.98;100.00;99723.84;681972;1261;139119;-80
2023/01/13 22:22:37;;;;;;;14.60;6.30;;;;;;;7.82;100.00;99723.97;681300;1262;138805;-79
2023/01/13 22:37:53;;;;;;;13.00;7.50;;;;;;;7.70;100.00;99731.48;681519;1262;525399;-79
2023/01/13 22:53:00;;;;;;;16.10;6.70;;;;;;;7.63;100.00;99744.88;681890;1261;139419;-80
2023/01/13 23:08:04;;;;;;;14.30;7.50;;;;;;;7.56;100.00;99749.85;682260;1260;139070;-80
2023/01/13 23:23:07;;;;;;;11.60;6.30;;;;;;;7.49;100.00;99752.52;682093;1262;139794;-79
2023/01/13 23:38:24;;;;;;;13.20;5.90;;;;;;;7.44;100.00;99745.53;682198;1261;138520;-80
2023/01/13 23:53:48;;;;;;;15.00;6.60;;;;;;;7.40;100.00;99745.21;681919;1261;138340;-80
